Time;durP1;ratioP1;P1;durP2;ratioP2;P2;SDS_P1;SDS_P2;PMS_P1;PMS_P2;Temp;Humidity;BMP_temperature;BMP_pressure;BME280_temperature;BME280_humidity;BME280_pressure;Samples;Min_cycle;Max_cycle;Signal;HPM_P1;HPM_P2
2021/05/15 00:02:19;;;;;;;5.60;2.03;;;27.70;41.20;;;;;;5052221;28;20040;-49
2021/05/15 00:04:45;;;;;;;4.75;1.85;;;27.70;41.30;;;;;;5052426;28;20036;-49
2021/05/15 00:07:11;;;;;;;5.53;2.22;;;27.70;41.40;;;;;;5065194;28;20147;-49
2021/05/15 00:09:37;;;;;;;6.55;2.35;;;27.70;41.50;;;;;;5070239;28;20086;-49
2021/05/15 00:12:04;;;;;;;8.32;2.65;;;27.60;41.50;;;;;;5069737;28;20060;-49
2021/05/15 00:14:31;;;;;;;5.38;2.22;;;27.60;41.70;;;;;;5070438;28;20048;-48
2021/05/15 00:16:57;;;;;;;7.80;2.40;;;27.60;41.60;;;;;;5051408;28;20468;-49
2021/05/15 00:19:23;;;;;;;7.25;2.25;;;27.60;41.70;;;;;;5052179;28;20082;-49
2021/05/15 00:21:50;;;;;;;4.68;2.20;;;27.60;41.80;;;;;;5069973;28;20412;-48
2021/05/15 00:24:16;;;;;;;7.25;2.42;;;27.60;41.90;;;;;;5067524;28;20094;-49
2021/05/15 00:26:42;;;;;;;7.82;2.50;;;27.60;41.90;;;;;;5071274;28;20024;-49
2021/05/15 00:29:09;;;;;;;5.28;2.55;;;27.60;42.00;;;;;;5074195;28;20060;-49
2021/05/15 00:31:35;;;;;;;7.40;2.85;;;27.60;42.00;;;;;;5073966;28;20418;-49
2021/05/15 00:34:02;;;;;;;5.20;2.42;;;27.60;42.20;;;;;;5074009;28;20040;-48
2021/05/15 00:36:28;;;;;;;7.47;2.63;;;27.60;42.20;;;;;;5073974;28;20563;-49
2021/05/15 00:38:54;;;;;;;7.85;2.60;;;27.50;42.20;;;;;;5055240;28;20063;-49
2021/05/15 00:41:20;;;;;;;11.23;2.88;;;27.50;42.30;;;;;;5055903;28;20071;-49
2021/05/15 00:43:58;;;;;;;7.03;3.03;;;27.50;42.30;;;;;;5073693;28;20063;-49
2021/05/15 00:46:27;;;;;;;5.97;2.65;;;27.50;42.40;;;;;;5071808;28;20119;-49
2021/05/15 00:48:53;;;;;;;7.65;2.75;;;27.50;42.80;;;;;;5073595;28;20032;-48
2021/05/15 00:51:20;;;;;;;6.93;2.35;;;27.50;42.60;;;;;;5072629;28;20097;-48
2021/05/15 00:53:47;;;;;;;6.22;2.63;;;27.50;42.80;;;;;;5069935;28;20402;-48
2021/05/15 00:56:14;;;;;;;7.28;2.38;;;27.40;42.60;;;;;;5074348;28;20040;-48
2021/05/15 00:58:41;;;;;;;11.23;2.80;;;27.50;42.70;;;;;;5074349;28;20039;-48
2021/05/15 01:01:07;;;;;;;9.50;2.70;;;27.50;42.80;;;;;;5073451;28;20363;-48
2021/05/15 01:03:33;;;;;;;6.47;2.58;;;27.40;42.70;;;;;;5074441;28;20036;-48
2021/05/15 01:06:03;;;;;;;5.43;2.45;;;27.50;42.90;;;;;;5074106;28;20046;-48
2021/05/15 01:08:30;;;;;;;6.95;2.42;;;27.40;43.30;;;;;;5073896;28;20095;-48
2021/05/15 01:10:56;;;;;;;8.15;2.75;;;27.40;43.10;;;;;;5074243;28;20123;-48
2021/05/15 01:13:31;;;;;;;11.40;3.10;;;27.40;43.20;;;;;;5074067;28;20033;-48
2021/05/15 01:15:59;;;;;;;8.93;2.75;;;27.40;43.30;;;;;;5071897;28;20350;-48
2021/05/15 01:18:26;;;;;;;8.88;2.58;;;27.40;43.60;;;;;;5074204;28;20037;-48
2021/05/15 01:20:59;;;;;;;8.13;2.70;;;27.40;43.50;;;;;;5073623;28;20124;-48
2021/05/15 01:23:25;;;;;;;9.43;2.88;;;27.40;43.70;;;;;;5073268;28;20037;-48
2021/05/15 01:25:51;;;;;;;9.38;2.72;;;27.30;43.60;;;;;;5073559;28;20494;-48
2021/05/15 01:28:17;;;;;;;9.82;3.58;;;27.30;43.60;;;;;;5073571;28;20490;-48
2021/05/15 01:30:44;;;;;;;6.40;3.03;;;27.30;43.60;;;;;;5073981;28;20067;-48
2021/05/15 01:33:10;;;;;;;9.30;2.47;;;27.30;43.70;;;;;;5073752;28;20386;-48
2021/05/15 01:35:36;;;;;;;4.03;2.38;;;27.30;43.80;;;;;;5073722;28;20091;-48
2021/05/15 01:38:02;;;;;;;4.25;2.58;;;27.30;43.70;;;;;;5072986;28;20028;-48
2021/05/15 01:40:28;;;;;;;7.93;2.70;;;27.20;43.60;;;;;;5073124;28;20047;-48
2021/05/15 01:42:54;;;;;;;6.88;2.42;;;27.20;43.80;;;;;;5073380;28;20068;-48
2021/05/15 01:45:20;;;;;;;9.77;2.58;;;27.20;43.60;;;;;;5073656;28;20067;-48
2021/05/15 01:47:46;;;;;;;9.10;2.80;;;27.20;43.50;;;;;;5073313;28;20059;-49
2021/05/15 01:50:15;;;;;;;9.05;3.42;;;27.20;43.40;;;;;;5073521;28;20368;-49
2021/05/15 01:52:41;;;;;;;8.23;2.97;;;27.20;43.40;;;;;;5088696;28;20135;-48
2021/05/15 01:55:21;;;;;;;8.95;3.50;;;27.20;43.40;;;;;;5072296;28;20482;-49
2021/05/15 01:57:48;;;;;;;7.13;3.65;;;27.20;43.40;;;;;;5073551;28;20041;-49
2021/05/15 02:00:15;;;;;;;7.82;3.05;;;27.20;43.30;;;;;;5072821;28;20838;-49
2021/05/15 02:02:41;;;;;;;7.82;3.60;;;27.20;43.20;;;;;;5073181;28;20727;-49
2021/05/15 02:05:08;;;;;;;6.13;3.47;;;27.20;43.20;;;;;;5072975;28;20710;-49
2021/05/15 02:07:34;;;;;;;11.82;3.88;;;27.20;43.20;;;;;;5065679;28;20044;-49
2021/05/15 02:10:00;;;;;;;13.00;4.15;;;27.20;43.80;;;;;;5073254;28;20037;-48
2021/05/15 02:12:26;;;;;;;8.15;4.10;;;27.20;43.20;;;;;;5073202;28;20040;-49
2021/05/15 02:14:51;;;;;;;7.75;4.20;;;27.20;43.20;;;;;;5073243;28;20085;-48
2021/05/15 02:17:17;;;;;;;7.07;3.78;;;27.20;43.10;;;;;;5073147;28;20063;-49
2021/05/15 02:19:43;;;;;;;8.32;4.68;;;27.20;43.10;;;;;;5072619;28;20040;-48
2021/05/15 02:22:09;;;;;;;8.30;4.20;;;27.20;43.00;;;;;;5054171;28;20072;-49
2021/05/15 02:24:35;;;;;;;11.95;5.13;;;27.20;43.00;;;;;;5058774;28;20041;-48
2021/05/15 02:27:01;;;;;;;9.70;4.97;;;27.20;42.90;;;;;;5072779;28;20433;-48
2021/05/15 02:29:27;;;;;;;12.60;5.47;;;27.10;42.80;;;;;;5072655;28;20174;-48
2021/05/15 02:31:53;;;;;;;9.40;4.32;;;27.10;42.80;;;;;;5072797;28;20111;-49
2021/05/15 02:34:19;;;;;;;12.52;4.22;;;27.10;42.80;;;;;;5072665;28;20040;-49
2021/05/15 02:36:45;;;;;;;10.18;4.25;;;27.10;42.70;;;;;;5072111;28;20041;-49
2021/05/15 02:39:11;;;;;;;10.13;4.20;;;27.10;42.70;;;;;;5072243;28;20504;-49
2021/05/15 02:41:37;;;;;;;9.07;3.90;;;27.10;42.60;;;;;;5072419;28;20045;-48
2021/05/15 02:44:04;;;;;;;8.43;4.00;;;27.00;42.40;;;;;;5072483;28;20124;-48
2021/05/15 02:46:30;;;;;;;6.38;3.30;;;27.00;42.40;;;;;;5072416;28;20082;-48
2021/05/15 02:48:55;;;;;;;7.75;3.38;;;27.00;42.40;;;;;;5067955;28;20029;-53
2021/05/15 02:51:21;;;;;;;7.78;3.50;;;27.00;42.20;;;;;;5088502;28;20036;-53
2021/05/15 02:53:47;;;;;;;8.25;3.25;;;27.00;42.20;;;;;;5079120;28;20141;-53
2021/05/15 02:56:13;;;;;;;5.45;3.17;;;27.00;42.10;;;;;;5087557;28;20024;-53
2021/05/15 02:58:39;;;;;;;8.73;3.05;;;27.00;42.20;;;;;;5070312;28;20033;-53
2021/05/15 03:01:05;;;;;;;5.32;3.03;;;27.00;42.00;;;;;;5070092;28;20044;-53
2021/05/15 03:03:31;;;;;;;6.53;2.78;;;27.00;42.60;;;;;;5070626;28;20039;-52
2021/05/15 03:05:59;;;;;;;5.03;2.30;;;27.00;41.90;;;;;;5070777;28;20072;-53
2021/05/15 03:08:25;;;;;;;7.25;3.28;;;27.00;41.90;;;;;;5070760;28;20032;-53
2021/05/15 03:10:51;;;;;;;6.65;2.88;;;26.90;41.90;;;;;;5070512;28;20060;-53
2021/05/15 03:13:17;;;;;;;6.88;2.40;;;27.00;42.00;;;;;;5070433;28;20047;-52
2021/05/15 03:15:43;;;;;;;3.88;2.10;;;26.90;41.90;;;;;;5070696;28;20036;-52
2021/05/15 03:18:09;;;;;;;9.63;3.15;;;26.90;41.90;;;;;;5070638;28;20444;-51
2021/05/15 03:20:35;;;;;;;6.50;2.53;;;26.90;41.90;;;;;;5070698;28;20032;-52
2021/05/15 03:23:01;;;;;;;5.25;2.55;;;26.90;41.90;;;;;;5070202;28;20033;-53
2021/05/15 03:25:27;;;;;;;12.27;3.03;;;26.90;42.00;;;;;;5086565;28;20439;-53
2021/05/15 03:27:53;;;;;;;7.10;2.90;;;26.90;41.90;;;;;;5070773;28;20119;-52
2021/05/15 03:30:19;;;;;;;6.45;2.78;;;26.90;42.00;;;;;;5069543;28;20033;-53
2021/05/15 03:32:45;;;;;;;7.28;2.70;;;26.90;41.90;;;;;;5052212;28;20037;-52
2021/05/15 03:35:13;;;;;;;6.82;2.67;;;26.90;42.00;;;;;;5070645;28;20052;-54
2021/05/15 03:37:40;;;;;;;7.95;3.15;;;26.80;41.90;;;;;;5070643;28;20040;-54
2021/05/15 03:40:08;;;;;;;7.50;2.60;;;26.90;42.00;;;;;;5052016;28;20181;-53
2021/05/15 03:42:34;;;;;;;7.00;2.70;;;26.80;41.90;;;;;;5070401;28;20043;-52
2021/05/15 03:45:00;;;;;;;8.98;3.25;;;26.80;41.90;;;;;;5070281;28;20475;-52
2021/05/15 03:47:26;;;;;;;8.63;3.10;;;26.80;41.90;;;;;;5052533;28;20401;-52
2021/05/15 03:49:52;;;;;;;5.45;2.10;;;26.80;41.80;;;;;;5070587;28;20085;-52
2021/05/15 03:52:18;;;;;;;3.50;1.95;;;26.80;41.80;;;;;;5070357;28;20117;-53
2021/05/15 03:54:44;;;;;;;7.15;2.88;;;26.80;41.70;;;;;;5070189;28;20066;-54
2021/05/15 03:57:10;;;;;;;5.97;2.40;;;26.80;41.70;;;;;;5070121;28;20035;-52
2021/05/15 03:59:37;;;;;;;5.60;2.45;;;26.80;42.40;;;;;;5070498;28;20040;-53
2021/05/15 04:02:02;;;;;;;5.57;2.33;;;26.70;41.70;;;;;;5072790;28;20044;-53
2021/05/15 04:04:29;;;;;;;8.60;2.83;;;26.70;41.70;;;;;;5074632;28;20089;-53
2021/05/15 04:06:55;;;;;;;5.15;2.58;;;26.70;41.60;;;;;;5074604;28;20107;-48
2021/05/15 04:09:21;;;;;;;5.35;2.20;;;26.70;41.60;;;;;;5074579;28;20514;-48
2021/05/15 04:11:47;;;;;;;5.82;2.83;;;26.70;41.60;;;;;;5075287;28;20421;-48
2021/05/15 04:19:27;;;;;;;4.07;2.38;;;26.70;41.60;;;;;;5075037;28;20044;-48
2021/05/15 04:21:53;;;;;;;6.88;2.67;;;26.70;41.60;;;;;;5074107;28;20514;-47
2021/05/15 04:24:23;;;;;;;6.72;3.17;;;26.70;41.50;;;;;;5074739;28;20087;-47
2021/05/15 04:26:53;;;;;;;8.88;3.22;;;26.70;41.50;;;;;;5055832;28;20505;-48
2021/05/15 04:29:20;;;;;;;10.73;3.75;;;26.60;41.40;;;;;;5074684;28;20032;-48
2021/05/15 04:31:47;;;;;;;7.53;3.47;;;26.60;41.30;;;;;;5057469;28;20055;-47
2021/05/15 04:34:13;;;;;;;5.80;3.38;;;26.60;41.30;;;;;;5075130;28;20044;-48
2021/05/15 04:36:39;;;;;;;9.90;3.72;;;26.60;41.20;;;;;;5074875;28;20051;-48
2021/05/15 04:39:06;;;;;;;5.10;2.88;;;26.60;41.10;;;;;;5056604;28;20048;-48
2021/05/15 04:41:32;;;;;;;6.28;3.17;;;26.60;41.10;;;;;;5074881;28;20405;-48
2021/05/15 04:43:58;;;;;;;5.28;2.92;;;26.50;40.90;;;;;;5075037;28;20036;-48
2021/05/15 04:46:24;;;;;;;7.10;2.97;;;26.50;41.00;;;;;;5074163;28;20037;-48
2021/05/15 04:48:50;;;;;;;8.07;2.75;;;26.50;40.90;;;;;;5074859;28;20083;-47
2021/05/15 04:51:16;;;;;;;6.60;3.00;;;26.50;40.90;;;;;;5073819;28;20230;-47
2021/05/15 04:53:42;;;;;;;4.97;2.67;;;26.50;40.90;;;;;;5074118;28;20048;-48
2021/05/15 04:56:10;;;;;;;8.63;3.33;;;26.50;41.00;;;;;;5073933;28;20101;-47
2021/05/15 04:58:36;;;;;;;6.13;2.80;;;26.40;40.90;;;;;;5072818;28;20041;-47
2021/05/15 05:01:03;;;;;;;4.65;2.55;;;26.40;40.90;;;;;;5056030;28;20036;-48
2021/05/15 05:03:30;;;;;;;4.50;2.75;;;26.40;41.00;;;;;;5074316;28;20052;-48
2021/05/15 05:05:56;;;;;;;8.80;3.50;;;26.40;41.10;;;;;;5074361;28;20078;-48
2021/05/15 05:08:25;;;;;;;9.25;3.30;;;26.40;40.80;;;;;;5074465;28;20054;-49
2021/05/15 05:10:54;;;;;;;5.72;3.00;;;26.40;40.80;;;;;;5073122;28;20127;-53
2021/05/15 05:13:20;;;;;;;6.18;2.75;;;26.30;40.80;;;;;;5072135;28;20374;-53
2021/05/15 05:15:46;;;;;;;7.03;2.85;;;26.40;40.80;;;;;;5072837;28;20090;-53
2021/05/15 05:18:13;;;;;;;7.03;3.45;;;26.40;40.80;;;;;;5073027;28;20056;-53
2021/05/15 05:20:39;;;;;;;6.22;2.95;;;26.40;40.80;;;;;;5072476;28;20029;-53
2021/05/15 05:23:06;;;;;;;4.85;3.05;;;26.30;40.80;;;;;;5072913;28;20060;-53
2021/05/15 05:25:32;;;;;;;4.68;2.20;;;26.40;40.80;;;;;;5072585;28;20396;-53
2021/05/15 05:27:59;;;;;;;4.18;2.45;;;26.30;40.60;;;;;;5072731;28;20036;-53
2021/05/15 05:30:26;;;;;;;5.90;2.83;;;26.40;40.70;;;;;;5072753;28;20064;-54
2021/05/15 05:32:52;;;;;;;4.80;2.95;;;26.30;40.60;;;;;;5073026;28;20033;-54
2021/05/15 05:35:20;;;;;;;4.03;2.33;;;26.30;40.40;;;;;;5072782;28;20490;-53
2021/05/15 05:37:48;;;;;;;8.48;2.00;;;26.30;40.40;;;;;;5072922;28;20248;-53
2021/05/15 05:40:15;;;;;;;4.20;2.10;;;26.30;40.30;;;;;;5087964;28;20044;-53
2021/05/15 05:42:42;;;;;;;6.22;2.17;;;26.30;40.30;;;;;;5072922;28;20029;-53
2021/05/15 05:45:11;;;;;;;5.28;2.75;;;26.30;40.40;;;;;;5072384;28;20032;-53
2021/05/15 05:47:37;;;;;;;4.85;2.25;;;26.20;40.30;;;;;;5072267;28;20047;-54
2021/05/15 05:50:04;;;;;;;4.97;2.20;;;26.20;40.30;;;;;;5072626;28;20069;-53
2021/05/15 05:52:30;;;;;;;4.80;2.20;;;26.20;40.40;;;;;;5072672;28;20394;-53
2021/05/15 05:54:56;;;;;;;4.45;2.22;;;26.20;40.30;;;;;;5072098;28;20058;-53
2021/05/15 05:57:22;;;;;;;4.97;2.70;;;26.20;40.20;;;;;;5072604;28;20047;-54
2021/05/15 05:59:48;;;;;;;5.88;2.53;;;26.20;40.10;;;;;;5088629;28;20058;-53
2021/05/15 06:02:14;;;;;;;3.85;2.28;;;26.20;40.10;;;;;;5075316;28;20048;-53
2021/05/15 06:04:40;;;;;;;5.80;2.30;;;26.10;40.00;;;;;;5053585;28;20110;-53
2021/05/15 06:07:07;;;;;;;7.55;2.75;;;26.20;40.10;;;;;;5067036;28;20108;-53
2021/05/15 06:09:34;;;;;;;9.88;2.55;;;26.10;39.80;;;;;;5072034;28;20032;-53
2021/05/15 06:12:00;;;;;;;6.57;3.08;;;26.10;39.80;;;;;;5071782;28;20033;-53
2021/05/15 06:14:27;;;;;;;6.43;2.40;;;26.10;39.80;;;;;;5072162;28;20555;-53
2021/05/15 06:16:53;;;;;;;5.60;2.10;;;26.10;39.80;;;;;;5071334;28;20489;-53
2021/05/15 06:19:19;;;;;;;10.32;5.78;;;26.10;39.70;;;;;;5071732;28;20506;-53
2021/05/15 06:21:45;;;;;;;7.47;5.00;;;26.00;39.60;;;;;;5070542;28;20047;-53
2021/05/15 06:24:11;;;;;;;10.70;5.15;;;26.00;39.60;;;;;;5070982;28;20044;-53
2021/05/15 06:26:38;;;;;;;9.85;7.55;;;26.00;39.60;;;;;;5070863;28;20060;-53
2021/05/15 06:29:05;;;;;;;12.75;7.68;;;25.90;39.70;;;;;;5071087;28;20033;-53
2021/05/15 06:31:31;;;;;;;13.25;7.28;;;25.90;39.70;;;;;;5070851;28;20360;-53
2021/05/15 06:33:57;;;;;;;11.75;6.22;;;25.80;39.70;;;;;;5070872;28;20059;-53
2021/05/15 06:36:23;;;;;;;6.85;5.15;;;25.80;39.80;;;;;;5070809;28;20961;-53
2021/05/15 06:38:49;;;;;;;6.68;4.50;;;25.80;40.00;;;;;;5070898;28;20029;-53
2021/05/15 06:41:16;;;;;;;5.30;2.30;;;25.80;40.10;;;;;;5053121;28;20494;-53
2021/05/15 06:43:42;;;;;;;6.88;3.03;;;25.70;40.00;;;;;;5071248;28;20032;-53
2021/05/15 06:46:08;;;;;;;7.85;2.53;;;25.70;40.00;;;;;;5070886;28;20033;-53
2021/05/15 06:48:34;;;;;;;3.55;1.90;;;25.70;40.00;;;;;;5071518;28;20166;-53
2021/05/15 06:51:00;;;;;;;6.15;2.08;;;25.60;40.00;;;;;;5071243;28;20392;-53
2021/05/15 06:53:26;;;;;;;6.72;2.05;;;25.60;40.10;;;;;;5070921;28;20116;-53
2021/05/15 06:55:52;;;;;;;5.55;2.33;;;25.70;40.20;;;;;;5070902;28;20037;-53
2021/05/15 06:58:18;;;;;;;3.92;2.13;;;25.60;40.10;;;;;;5071282;28;20052;-53
2021/05/15 07:00:44;;;;;;;5.90;2.63;;;25.60;40.10;;;;;;5050946;28;20126;-53
2021/05/15 07:03:10;;;;;;;4.00;2.35;;;25.60;40.10;;;;;;5060432;28;20123;-53
2021/05/15 07:05:36;;;;;;;8.80;3.15;;;25.60;40.10;;;;;;5067464;28;20033;-52
2021/05/15 07:08:02;;;;;;;6.13;4.13;;;25.70;40.10;;;;;;5036390;28;20103;-53
2021/05/15 07:10:28;;;;;;;4.65;3.10;;;25.70;40.00;;;;;;5070705;28;20056;-53
2021/05/15 07:12:55;;;;;;;16.30;8.93;;;25.70;40.10;;;;;;5071757;28;20429;-49
2021/05/15 07:15:21;;;;;;;15.52;8.88;;;25.70;40.10;;;;;;5072029;28;20037;-49
2021/05/15 07:17:47;;;;;;;18.50;12.02;;;25.70;40.00;;;;;;5070938;28;20043;-48
2021/05/15 07:20:14;;;;;;;21.33;18.10;;;25.80;40.20;;;;;;5070437;28;20036;-48
2021/05/15 07:22:42;;;;;;;27.83;23.15;;;25.80;40.20;;;;;;5071327;28;20486;-48
2021/05/15 07:25:09;;;;;;;23.23;17.50;;;25.80;40.30;;;;;;5070341;28;20082;-52
2021/05/15 07:27:37;;;;;;;32.40;28.98;;;25.90;40.40;;;;;;5070041;28;20035;-53
2021/05/15 07:30:05;;;;;;;28.88;25.23;;;25.90;40.60;;;;;;5055600;28;20116;-53
2021/05/15 07:32:32;;;;;;;20.45;17.80;;;26.00;40.70;;;;;;5070314;28;20036;-53
2021/05/15 07:34:58;;;;;;;27.60;23.77;;;26.00;40.50;;;;;;5058395;28;20045;-53
2021/05/15 07:37:24;;;;;;;33.95;28.70;;;26.00;40.50;;;;;;5069022;28;20360;-53
2021/05/15 07:39:51;;;;;;;25.10;22.40;;;26.10;40.60;;;;;;5069075;28;20036;-52
2021/05/15 07:42:17;;;;;;;19.05;15.95;;;26.10;40.40;;;;;;5070355;28;20036;-52
2021/05/15 07:44:43;;;;;;;10.90;8.65;;;26.10;40.50;;;;;;5069583;28;20024;-53
2021/05/15 07:47:09;;;;;;;13.10;11.70;;;26.20;40.30;;;;;;5070038;28;20142;-53
2021/05/15 07:49:35;;;;;;;15.77;14.18;;;26.20;40.30;;;;;;5068220;28;20371;-53
2021/05/15 07:52:01;;;;;;;14.60;12.75;;;26.20;40.40;;;;;;5085393;28;20051;-53
2021/05/15 07:54:27;;;;;;;11.15;9.82;;;26.30;40.50;;;;;;5070659;28;20025;-53
2021/05/15 07:56:54;;;;;;;11.82;7.63;;;26.30;40.50;;;;;;5070298;28;20051;-52
2021/05/15 07:59:21;;;;;;;21.52;18.67;;;26.30;40.50;;;;;;5070446;28;20041;-53
2021/05/15 08:01:48;;;;;;;25.30;22.15;;;26.40;40.70;;;;;;5070112;28;20037;-53
2021/05/15 08:04:14;;;;;;;23.60;20.20;;;26.40;40.60;;;;;;5032854;28;20037;-52
2021/05/15 08:06:41;;;;;;;15.10;11.75;;;26.50;40.50;;;;;;5063121;28;20025;-53
2021/05/15 08:09:07;;;;;;;14.75;13.15;;;26.50;40.30;;;;;;5069449;28;20037;-52
2021/05/15 08:11:35;;;;;;;14.27;10.40;;;26.60;40.40;;;;;;5069480;28;20133;-52
2021/05/15 08:14:04;;;;;;;13.50;6.60;;;26.60;40.50;;;;;;5056031;28;20028;-53
2021/05/15 08:16:32;;;;;;;10.93;5.45;;;26.60;40.50;;;;;;5070299;28;20159;-53
2021/05/15 08:18:58;;;;;;;8.50;4.43;;;26.70;40.30;;;;;;5082363;28;20040;-53
2021/05/15 08:21:24;;;;;;;6.80;4.05;;;26.70;40.10;;;;;;5070602;28;20848;-53
2021/05/15 08:23:50;;;;;;;8.35;3.58;;;26.70;39.90;;;;;;5070478;28;20910;-54
2021/05/15 08:26:16;;;;;;;6.15;3.22;;;26.80;39.90;;;;;;5070376;28;20099;-53
2021/05/15 08:28:46;;;;;;;7.45;4.30;;;26.90;39.80;;;;;;5069846;28;20486;-54
2021/05/15 08:31:12;;;;;;;27.80;24.50;;;26.90;39.90;;;;;;5069829;28;20033;-53
2021/05/15 08:33:38;;;;;;;17.77;13.82;;;27.00;39.90;;;;;;5070487;28;20492;-53
2021/05/15 08:36:06;;;;;;;11.75;8.30;;;27.00;40.00;;;;;;5070144;28;20041;-53
2021/05/15 08:38:32;;;;;;;13.13;7.22;;;27.00;40.00;;;;;;5069980;28;20603;-54
2021/05/15 08:40:59;;;;;;;8.05;4.30;;;27.10;40.10;;;;;;5051940;28;20117;-54
2021/05/15 08:43:27;;;;;;;8.48;3.65;;;27.10;39.90;;;;;;5069492;28;20137;-53
2021/05/15 08:45:57;;;;;;;6.82;3.55;;;27.10;39.90;;;;;;5070066;28;20079;-54
2021/05/15 08:48:25;;;;;;;9.18;2.97;;;27.20;39.90;;;;;;5071961;28;20037;-54
2021/05/15 08:50:51;;;;;;;6.28;2.78;;;27.20;39.80;;;;;;5055177;28;20116;-53
2021/05/15 08:53:17;;;;;;;8.27;2.42;;;27.20;39.70;;;;;;5072928;28;20398;-54
2021/05/15 08:55:44;;;;;;;9.02;3.50;;;27.30;39.70;;;;;;5073269;28;20033;-53
2021/05/15 08:58:10;;;;;;;5.65;2.40;;;27.30;39.60;;;;;;5073126;28;20044;-53
2021/05/15 09:00:41;;;;;;;4.45;2.28;;;27.30;39.60;;;;;;5073246;28;20048;-54
2021/05/15 09:03:10;;;;;;;6.68;2.35;;;27.30;39.50;;;;;;5072690;28;20102;-53
2021/05/15 09:05:38;;;;;;;7.20;2.50;;;27.30;39.40;;;;;;5054963;28;20024;-53
2021/05/15 09:08:08;;;;;;;5.88;2.47;;;27.40;39.60;;;;;;5072787;28;20058;-53
2021/05/15 09:10:36;;;;;;;8.10;3.28;;;27.40;39.70;;;;;;5072860;28;20082;-54
2021/05/15 09:13:36;;;;;;;7.70;2.75;;;27.40;39.90;;;;;;5072821;28;20036;-54
2021/05/15 09:16:06;;;;;;;5.35;2.42;;;27.40;40.10;;;;;;5068742;28;20537;-54
2021/05/15 09:18:39;;;;;;;7.30;2.22;;;27.50;40.20;;;;;;5054621;28;20509;-54
2021/05/15 09:21:09;;;;;;;5.97;2.30;;;27.50;40.40;;;;;;5072743;28;20041;-54
2021/05/15 09:23:38;;;;;;;6.63;2.65;;;27.50;40.80;;;;;;5072707;28;20091;-55
2021/05/15 09:26:09;;;;;;;7.60;2.40;;;27.60;41.00;;;;;;5054599;28;20402;-54
2021/05/15 09:28:40;;;;;;;7.30;2.95;;;27.60;41.00;;;;;;5072740;28;20574;-53
2021/05/15 09:31:11;;;;;;;8.85;2.65;;;27.50;41.10;;;;;;5072754;28;20429;-55
2021/05/15 09:33:37;;;;;;;10.95;3.47;;;27.60;41.40;;;;;;5072453;28;20040;-56
2021/05/15 09:36:24;;;;;;;5.32;2.45;;;27.60;41.40;;;;;;5072504;28;20055;-54
2021/05/15 09:39:10;;;;;;;6.30;2.80;;;27.60;41.60;;;;;;5054300;28;20038;-55
2021/05/15 09:41:46;;;;;;;7.50;2.53;;;27.60;41.80;;;;;;5072374;28;20043;-56
2021/05/15 09:44:14;;;;;;;5.65;2.40;;;27.60;42.00;;;;;;5072219;28;20041;-56
2021/05/15 09:46:43;;;;;;;12.02;3.60;;;27.60;42.00;;;;;;5071987;28;20052;-55
2021/05/15 09:49:09;;;;;;;10.95;3.53;;;27.50;42.40;;;;;;5071736;28;20564;-54
2021/05/15 09:51:36;;;;;;;7.15;2.83;;;27.50;42.70;;;;;;5053991;28;20406;-56
2021/05/15 09:54:20;;;;;;;7.35;2.65;;;27.40;42.50;;;;;;5072389;28;20044;-56
2021/05/15 09:56:58;;;;;;;9.32;2.75;;;27.40;42.60;;;;;;5072050;28;20166;-56
2021/05/15 09:59:32;;;;;;;7.60;2.58;;;27.40;42.90;;;;;;5071719;28;20174;-58
2021/05/15 10:02:00;;;;;;;8.88;2.97;;;27.30;43.00;;;;;;5072118;28;20041;-59
2021/05/15 10:04:27;;;;;;;10.57;3.65;;;27.30;43.10;;;;;;5072098;28;20086;-60
2021/05/15 10:06:55;;;;;;;8.77;3.10;;;27.30;43.40;;;;;;5071475;28;20037;-59
2021/05/15 10:09:35;;;;;;;7.82;2.67;;;27.20;43.40;;;;;;5060666;28;20039;-60
2021/05/15 10:12:03;;;;;;;7.73;3.67;;;27.10;43.70;;;;;;5072646;28;20040;-59
2021/05/15 10:14:29;;;;;;;6.88;2.30;;;27.10;43.60;;;;;;5072069;28;20042;-59
2021/05/15 10:16:56;;;;;;;11.75;3.10;;;27.10;43.80;;;;;;5072156;28;20050;-58
2021/05/15 10:19:22;;;;;;;8.32;3.20;;;27.10;44.00;;;;;;5072189;28;20103;-59
2021/05/15 10:21:49;;;;;;;9.52;2.90;;;27.10;44.10;;;;;;5072434;28;20063;-59
2021/05/15 10:24:32;;;;;;;6.30;2.60;;;27.10;44.20;;;;;;5072682;28;20044;-59
2021/05/15 10:27:11;;;;;;;5.55;2.47;;;27.10;44.40;;;;;;5072071;28;20115;-59
2021/05/15 10:29:52;;;;;;;7.90;3.45;;;27.10;44.50;;;;;;5072032;28;20048;-58
2021/05/15 10:32:18;;;;;;;5.85;2.95;;;27.10;44.90;;;;;;5072235;28;20055;-58
2021/05/15 10:34:48;;;;;;;10.82;2.95;;;27.20;44.60;;;;;;5073152;28;20041;-48
2021/05/15 10:37:19;;;;;;;6.28;2.97;;;27.20;45.10;;;;;;5072543;28;20063;-49
2021/05/15 10:39:48;;;;;;;9.02;3.08;;;27.20;45.10;;;;;;5072306;28;20045;-49
2021/05/15 10:42:25;;;;;;;7.38;2.78;;;27.20;45.10;;;;;;5072236;28;20044;-49
2021/05/15 10:44:52;;;;;;;8.05;2.78;;;27.20;45.20;;;;;;5073028;28;20044;-49
2021/05/15 10:47:21;;;;;;;7.90;2.25;;;27.20;45.20;;;;;;5054878;28;20039;-49
2021/05/15 10:49:47;;;;;;;10.32;3.10;;;27.20;45.20;;;;;;5072879;28;20047;-48
2021/05/15 10:52:16;;;;;;;7.75;3.03;;;27.20;45.50;;;;;;5072900;28;20111;-48
2021/05/15 10:55:00;;;;;;;8.90;3.13;;;27.20;45.60;;;;;;5072741;28;20043;-48
2021/05/15 10:57:30;;;;;;;11.43;3.20;;;27.20;46.00;;;;;;5072478;28;20056;-49
2021/05/15 11:00:03;;;;;;;7.15;3.20;;;27.20;45.80;;;;;;5072232;28;20754;-49
2021/05/15 11:02:33;;;;;;;7.95;2.67;;;27.20;46.10;;;;;;5072326;28;20063;-50
2021/05/15 11:05:23;;;;;;;8.73;2.75;;;27.20;46.10;;;;;;5072269;28;20390;-49
2021/05/15 11:07:49;;;;;;;9.30;4.28;;;27.30;46.40;;;;;;5072210;28;20043;-49
2021/05/15 11:10:17;;;;;;;11.40;3.08;;;27.30;46.20;;;;;;5053873;28;20468;-49
2021/05/15 11:12:44;;;;;;;17.95;3.55;;;27.20;46.20;;;;;;5053216;28;20443;-58
2021/05/15 11:15:13;;;;;;;7.60;2.67;;;27.30;46.50;;;;;;5070913;28;20390;-59
2021/05/15 11:17:39;;;;;;;12.38;3.45;;;27.20;46.50;;;;;;5071080;28;20190;-58
2021/05/15 11:20:15;;;;;;;10.50;3.10;;;27.20;46.50;;;;;;5070834;28;20112;-58
2021/05/15 11:22:42;;;;;;;12.13;3.33;;;27.30;46.70;;;;;;5071229;28;20541;-59
2021/05/15 11:25:14;;;;;;;7.75;3.03;;;27.30;46.70;;;;;;5070812;28;20134;-58
2021/05/15 11:28:04;;;;;;;14.90;3.92;;;27.30;47.10;;;;;;5052780;28;20037;-60
2021/05/15 11:30:35;;;;;;;14.25;4.30;;;27.40;47.10;;;;;;5060715;28;20040;-59
2021/05/15 11:33:03;;;;;;;12.98;3.30;;;27.40;47.30;;;;;;5071112;28;20459;-58
2021/05/15 11:35:31;;;;;;;7.63;2.90;;;27.50;47.30;;;;;;5070895;28;20080;-59
2021/05/15 11:38:08;;;;;;;16.80;3.10;;;27.50;47.30;;;;;;5071050;28;20035;-59
2021/05/15 11:40:39;;;;;;;13.82;4.57;;;27.50;47.60;;;;;;5070943;28;20555;-49
2021/05/15 11:43:06;;;;;;;7.32;2.75;;;27.60;47.30;;;;;;5071959;28;20064;-49
2021/05/15 11:45:34;;;;;;;8.43;3.72;;;27.60;47.20;;;;;;5071571;28;20082;-49
2021/05/15 11:48:09;;;;;;;11.98;4.05;;;27.60;47.20;;;;;;5071596;28;20094;-50
2021/05/15 11:50:36;;;;;;;9.75;3.40;;;27.70;47.30;;;;;;5071373;28;20124;-49
2021/05/15 11:53:04;;;;;;;7.05;2.78;;;27.80;47.10;;;;;;5071449;28;20036;-48
2021/05/15 11:55:32;;;;;;;8.55;3.30;;;27.90;47.00;;;;;;5071429;28;20039;-49
2021/05/15 11:58:00;;;;;;;6.50;3.38;;;27.90;46.70;;;;;;5071839;28;20035;-49
2021/05/15 12:00:29;;;;;;;9.60;4.15;;;27.90;46.00;;;;;;5071220;28;20108;-48
2021/05/15 12:02:55;;;;;;;9.98;3.25;;;28.00;45.60;;;;;;5071284;28;20435;-49
2021/05/15 12:05:22;;;;;;;9.13;4.65;;;28.00;45.50;;;;;;5071284;28;20366;-49
2021/05/15 12:07:50;;;;;;;9.52;4.18;;;28.00;45.40;;;;;;5071252;28;20406;-49
2021/05/15 12:10:25;;;;;;;8.20;4.13;;;28.10;46.10;;;;;;5071264;28;20032;-49
2021/05/15 12:12:54;;;;;;;7.68;3.42;;;28.10;45.40;;;;;;5071727;28;20108;-49
2021/05/15 12:15:21;;;;;;;9.20;3.67;;;28.10;45.00;;;;;;5071255;28;20033;-49
2021/05/15 12:17:47;;;;;;;6.88;3.95;;;28.20;44.90;;;;;;5052911;28;20508;-49
2021/05/15 12:20:38;;;;;;;6.35;3.60;;;28.30;44.80;;;;;;5071227;28;20040;-49
2021/05/15 12:23:08;;;;;;;10.32;4.13;;;28.30;44.70;;;;;;5054893;28;20060;-49
2021/05/15 12:25:35;;;;;;;10.23;4.20;;;28.30;44.50;;;;;;5057217;28;20037;-49
2021/05/15 12:28:01;;;;;;;6.57;3.33;;;28.40;44.50;;;;;;5075114;28;20170;-49
2021/05/15 12:30:28;;;;;;;10.82;3.50;;;28.40;44.30;;;;;;5074576;28;20386;-49
2021/05/15 12:33:18;;;;;;;8.07;2.97;;;28.50;44.30;;;;;;5075348;28;20036;-49
2021/05/15 12:36:05;;;;;;;10.52;3.35;;;28.50;44.30;;;;;;5074859;28;20041;-49
2021/05/15 12:38:43;;;;;;;8.35;2.63;;;28.50;44.20;;;;;;5056811;28;20070;-49
2021/05/15 12:41:15;;;;;;;10.35;3.80;;;28.60;44.10;;;;;;5074465;28;20044;-49
2021/05/15 12:43:43;;;;;;;6.60;2.95;;;28.60;44.00;;;;;;5074566;28;20036;-48
2021/05/15 12:46:15;;;;;;;9.55;3.55;;;28.70;44.00;;;;;;5074677;28;20028;-49
2021/05/15 12:48:54;;;;;;;8.45;3.38;;;28.70;44.00;;;;;;5074766;28;20367;-49
2021/05/15 12:51:27;;;;;;;7.88;2.90;;;28.70;44.10;;;;;;5074631;28;20090;-48
2021/05/15 12:53:53;;;;;;;9.00;3.13;;;28.80;44.10;;;;;;5074646;28;20129;-48